Strona główna
METAR-TAF:

METAR-TAF

Lotnisko :

Port lotniczy Pekin

Pekin, Chiny

Szerokość geograficzna: 39-56N, Długość geograficzna: 116-17E, wysokość: 55 m

Aktualna obserwacja pogody

Raport powstał 20 minut temu, godzina 23:00 UTC
Wiatr 4 kt od północno-północny zachód, zmienny między zachodnio-północny zachód i północ
Temperatura 5°C
Wilgotność 75%
Ciśnienie 1029 hPa
Widzialność 10 km lub więcej
Brak chmur poniżej 1500 m i brak chmur cumulonimbus

METAR: ZBAA 182300Z 34002MPS 300V360 CAVOK 05/01 Q1029 NOSIG

czas: 07:20 (23:20 UTC)

Prognoza

Raport powstał 8 godziny i 0 minut temu, godzina 15:20 UTC
Prognoza ważna od 18 godzina 18 UTC do 19 godzina 18 UTC
Wiatr 8 kt od południe
Widzialność: 5000 m
zamglenie

TAF: ZBAA 181520Z 1818/1918 18004MPS 5000 BR NSC TX18/1907Z TN03/1821Z

Obserwacja i prognoza pogody dla ponad 4000 lotnisk (raport METAR i TAF).

Dostępne stacje oznaczono żółtymi i czerwonymi punktami na mapie.

Najedź kursorem aby zobaczyć nazwę stacji.

Kliknij aby zobaczyć obserwacje i prognozy pogody.

Aby zmienić mapę: kliknij na zielony przycisk z czarnym krzyżykiem, aby powiększyć; na zielony przycisk z myślnikiem, aby pomniejszyć; na zielone strzałki, aby przejść do map sąsiednich.


METAR-TAF: